Waverly, Illinois
Current Conditions -  °F | °C
As of 5:55 PM on Sunday 23 Nov 2014 (Local Time) from KIJX Reporting Station
Light Rain Light Rain  
Wind Chill: 52°   Ceiling: 400
Heat Index: 52°   Visibility: 5mi
Dew Point: 51°   Wind: 3mph
Humidity: 95%   Direction: 130°SE
Pressure: 29.3"   Gusts: NA
Location:  39.59°N, 89.95°W
Report Text: KIJX 232355Z AUTO 13003KT 5SM -RA OVC004 11/11 A2930 RMK AO2 P0005 60033 T01120105 10135 20112
Loading
Personal Weather Stations






























Interactive Weather Map New forecast layout! Learn more

10-Day Weather Forecast

Advertisements
Track Severe Weather on mobile